Aérodrome :
LOGIN :

S'inscrire | Disclaimer

   EN    FR    IT 

 










Légende :    VFR   VFR Marginal   IFR   IFR Intensif   IFR Très Intensif
Visi : 
Plafond : 
>= 8 km
>= 3000ft
5 à 8 km
1000 à 3000 ft
1500m à 5 km
500 à 1000 ft
800 à 1500m
200 à 500 ft
< 800m
< 200 ft
Symboles :   Orages  Brouillard  Fortes neiges  Fortes précipitations  Vent > 20 kt
SIGMETs :   Divers  Orages  Givrage  Turbulence  Onde Orograph.  Cendres Volcan.







- Altitude de l'aérodrome : 20 ft


EBFN - Koksijde

DERNIER METAR :
  • 221155Z 07013KT 9999 SKC 04/M03 Q1024 BLU BLU TEMPO WHT

METARs EXPIRÉS :
  • 221125Z 08012KT 9999 SKC 03/M03 Q1024 BLU BLU TEMPO WHT
  • 221055Z 08012KT 9999 SKC 03/M02 Q1024 BLU BLU TEMPO WHT
  • 221025Z 07011KT 9999 SKC 02/M02 Q1024 BLU BLU TEMPO WHT
  • 220955Z 07011KT 9999 SKC 01/M03 Q1024 BLU BLU TEMPO WHT
  • 220925Z 06011KT 9999 SKC 01/M03 Q1024 BLU BLU TEMPO WHT

TAF TAF EBFN
Valide du 22 à 10h jusqu'au 22 à 19h UTC


220841Z 2210/2219 06012KT 8000 SKC
TEMPO 2210/2219 6000
PROB40
TEMPO 2216/2219 SCT030
Pas de NOTAMs connus pour ce terrain.



MET'MAP, la Météo Aéronautique d'un coup d'oeil ! - Copyright ORBIFLY Décembre 2007 - Disclaimer

ORBIFLY MET'MAP TEAM :

Programmation & Développement : Alexandra Zaïnal
Conception & Développement : Baudouin d'Aumeries
Co-Programmation & Développement : Marc-Olivier Méhu
Soutien technique & logistique : Manuel Goepfert

Contact : metmap@orbifly.com




SOURCES & CREDITS :

   NOAA